Meteo Giornale » Osservazioni meteo Stati Uniti (USA) » Danville
ore: 20:53 - Osservazioni Meteo Danville
Lat. 36° 34' N Lon. 79° 20' W Alt. 174 metri s.l.m.
27 °C
Molto Nuvoloso
Temp. 24 Ore
20 °C
36 °C
Nord
0 Km/h
Dew point 21 °C
Umidità 69 %
Visibilità 10 Km
Il sole sorge alle ore 06:47
Il sole tramonta alle ore 19:47
| Data e Ora | Cielo e Fenomeni | T °C | DP °C | Um. % | Pres. hPa | Vis. km | Vento km/h | |
|---|---|---|---|---|---|---|---|---|
| Oggi h: 20:53 | Molto Nuvoloso | 27 | 21 | 69 | 1018 | 10 | N 0 | |
| Oggi h: 19:53 | Coperto | 30 | 21 | 58 | 1018 | 10 | N 0 | |
| Oggi h: 18:53 | Poco Nuvoloso | 32 | 21 | 52 | 1018 | 10 | N 7.4 | |
| Oggi h: 17:53 | Sereno | 32 | 21 | 52 | 1018 | 10 | N 5.5 | |
| Oggi h: 16:53 | Molto Nuvoloso | 36 | 18 | 34 | 1018 | 10 | O 11.1 | |
| Oggi h: 15:53 | Molto Nuvoloso | 35 | 17 | 34 | 1018 | 10 | N 5.5 | |
| Oggi h: 14:53 | Molto Nuvoloso | 34 | 20 | 43 | 1019 | 10 | N 7.4 | |
| Oggi h: 13:53 | Nuvoloso | 34 | 19 | 41 | 1019 | 10 | N 0 | |
| Oggi h: 12:53 | Poco Nuvoloso | 34 | 20 | 43 | 1020 | 10 | N 11.1 | |
| Oggi h: 11:53 | Sereno | 32 | 21 | 52 | 1020 | 10 | N 0 | |
| Oggi h: 10:53 | Sereno | 30 | 21 | 58 | 1020 | 10 | O/SO 7.4 | |
| Oggi h: 09:53 | Sereno | 28 | 21 | 65 | 1020 | 10 | O/SO 11.1 | |
| Oggi h: 08:53 | Sereno | 24 | 21 | 83 | 1021 | 10 | O/SO 9.3 | |
| Oggi h: 07:53 | Sereno | 21 | 20 | 94 | 1020 | 10 | N 0 | |
| Oggi h: 06:53 | Sereno | 20 | 19 | 93 | 1020 | 10 | N 5.5 | |
| Oggi h: 05:53 | Sereno | 20 | 19 | 93 | 1020 | 10 | N 0 | |
| Oggi h: 04:53 | Sereno | 20 | 19 | 93 | 1020 | 10 | N 0 | |
| Oggi h: 03:53 | Sereno | 20 | 19 | 93 | 1020 | 10 | N 0 | |
| Oggi h: 02:53 | Sereno | 21 | 20 | 94 | 1020 | 10 | N 5.5 | |
| Oggi h: 01:53 | Sereno | 21 | 20 | 94 | 1020 | 10 | N 0 | |
| Oggi h: 00:53 | Sereno | 22 | 20 | 88 | 1020 | 10 | N 5.5 | |
| Ieri h: 23:53 | Sereno | 23 | 21 | 88 | 1020 | 10 | N 0 | |
| Ieri h: 22:53 | Sereno | 23 | 21 | 88 | 1021 | 10 | N 0 | |
| Ieri h: 21:53 | Sereno | 24 | 21 | 83 | 1020 | 10 | N 5.5 | |



